sensor_id;sensor_type;location;lat;lon;timestamp;P1;durP1;ratioP1;P2;durP2;ratioP2
4909;SDS011;2470;49.868;8.660;2024-03-06T00:01:48;5.37;;;3.80;;
4909;SDS011;2470;49.868;8.660;2024-03-06T00:04:14;9.03;;;4.60;;
4909;SDS011;2470;49.868;8.660;2024-03-06T00:06:39;8.13;;;3.93;;
4909;SDS011;2470;49.868;8.660;2024-03-06T00:09:05;6.60;;;4.43;;
4909;SDS011;2470;49.868;8.660;2024-03-06T00:11:30;7.10;;;4.10;;
4909;SDS011;2470;49.868;8.660;2024-03-06T00:13:56;9.67;;;4.17;;
4909;SDS011;2470;49.868;8.660;2024-03-06T00:16:24;11.40;;;5.07;;
4909;SDS011;2470;49.868;8.660;2024-03-06T00:18:49;6.50;;;4.60;;
4909;SDS011;2470;49.868;8.660;2024-03-06T00:21:15;11.40;;;4.60;;
4909;SDS011;2470;49.868;8.660;2024-03-06T00:23:40;8.50;;;4.80;;
4909;SDS011;2470;49.868;8.660;2024-03-06T00:26:06;13.50;;;4.90;;
4909;SDS011;2470;49.868;8.660;2024-03-06T00:28:32;8.33;;;4.00;;
4909;SDS011;2470;49.868;8.660;2024-03-06T00:30:57;8.50;;;5.90;;
4909;SDS011;2470;49.868;8.660;2024-03-06T00:33:23;6.50;;;5.20;;
4909;SDS011;2470;49.868;8.660;2024-03-06T00:35:48;11.77;;;5.83;;
4909;SDS011;2470;49.868;8.660;2024-03-06T00:38:14;5.73;;;4.33;;
4909;SDS011;2470;49.868;8.660;2024-03-06T00:40:40;8.60;;;4.37;;
4909;SDS011;2470;49.868;8.660;2024-03-06T00:43:06;7.40;;;5.17;;
4909;SDS011;2470;49.868;8.660;2024-03-06T00:45:31;7.90;;;4.37;;
4909;SDS011;2470;49.868;8.660;2024-03-06T00:47:57;11.63;;;5.70;;
4909;SDS011;2470;49.868;8.660;2024-03-06T00:50:23;10.37;;;5.43;;
4909;SDS011;2470;49.868;8.660;2024-03-06T00:52:49;14.10;;;5.87;;
4909;SDS011;2470;49.868;8.660;2024-03-06T00:55:14;9.77;;;5.50;;
4909;SDS011;2470;49.868;8.660;2024-03-06T00:57:40;14.23;;;4.90;;
4909;SDS011;2470;49.868;8.660;2024-03-06T01:00:06;8.57;;;5.47;;
4909;SDS011;2470;49.868;8.660;2024-03-06T01:02:35;7.40;;;5.03;;
4909;SDS011;2470;49.868;8.660;2024-03-06T01:05:02;7.03;;;5.03;;
4909;SDS011;2470;49.868;8.660;2024-03-06T01:07:28;10.23;;;5.07;;
4909;SDS011;2470;49.868;8.660;2024-03-06T01:09:55;8.33;;;5.17;;
4909;SDS011;2470;49.868;8.660;2024-03-06T01:12:22;7.53;;;4.93;;
4909;SDS011;2470;49.868;8.660;2024-03-06T01:14:48;11.73;;;5.40;;
4909;SDS011;2470;49.868;8.660;2024-03-06T01:17:13;8.50;;;5.40;;
4909;SDS011;2470;49.868;8.660;2024-03-06T01:19:39;6.97;;;4.10;;
4909;SDS011;2470;49.868;8.660;2024-03-06T01:22:04;15.53;;;5.27;;
4909;SDS011;2470;49.868;8.660;2024-03-06T01:24:30;15.60;;;5.40;;
4909;SDS011;2470;49.868;8.660;2024-03-06T01:26:55;8.80;;;5.10;;
4909;SDS011;2470;49.868;8.660;2024-03-06T01:29:21;7.63;;;5.00;;
4909;SDS011;2470;49.868;8.660;2024-03-06T01:31:47;8.20;;;4.43;;
4909;SDS011;2470;49.868;8.660;2024-03-06T01:34:12;20.63;;;5.37;;
4909;SDS011;2470;49.868;8.660;2024-03-06T01:36:38;7.10;;;4.60;;
4909;SDS011;2470;49.868;8.660;2024-03-06T01:39:04;6.37;;;4.43;;
4909;SDS011;2470;49.868;8.660;2024-03-06T01:41:29;8.47;;;5.10;;
4909;SDS011;2470;49.868;8.660;2024-03-06T01:43:54;13.93;;;4.73;;
4909;SDS011;2470;49.868;8.660;2024-03-06T01:46:20;12.07;;;5.67;;
4909;SDS011;2470;49.868;8.660;2024-03-06T01:48:46;7.10;;;5.17;;
4909;SDS011;2470;49.868;8.660;2024-03-06T01:51:11;13.53;;;4.80;;
4909;SDS011;2470;49.868;8.660;2024-03-06T01:53:37;10.87;;;5.13;;
4909;SDS011;2470;49.868;8.660;2024-03-06T01:56:03;7.73;;;4.63;;
4909;SDS011;2470;49.868;8.660;2024-03-06T01:58:30;8.23;;;5.07;;
4909;SDS011;2470;49.868;8.660;2024-03-06T02:00:56;11.87;;;4.80;;
4909;SDS011;2470;49.868;8.660;2024-03-06T02:03:23;9.70;;;4.90;;
4909;SDS011;2470;49.868;8.660;2024-03-06T02:05:51;15.30;;;5.57;;
4909;SDS011;2470;49.868;8.660;2024-03-06T02:08:18;8.00;;;4.43;;
4909;SDS011;2470;49.868;8.660;2024-03-06T02:10:44;10.20;;;5.53;;
4909;SDS011;2470;49.868;8.660;2024-03-06T02:13:10;9.87;;;5.40;;
4909;SDS011;2470;49.868;8.660;2024-03-06T02:15:37;9.47;;;5.20;;
4909;SDS011;2470;49.868;8.660;2024-03-06T02:18:04;12.60;;;5.40;;
4909;SDS011;2470;49.868;8.660;2024-03-06T02:20:31;8.40;;;4.80;;
4909;SDS011;2470;49.868;8.660;2024-03-06T02:22:56;10.50;;;4.90;;
4909;SDS011;2470;49.868;8.660;2024-03-06T02:25:22;7.90;;;5.13;;
4909;SDS011;2470;49.868;8.660;2024-03-06T02:27:47;7.60;;;5.20;;
4909;SDS011;2470;49.868;8.660;2024-03-06T02:30:19;6.40;;;4.90;;
4909;SDS011;2470;49.868;8.660;2024-03-06T02:32:45;8.93;;;5.77;;
4909;SDS011;2470;49.868;8.660;2024-03-06T02:35:11;12.87;;;4.37;;
4909;SDS011;2470;49.868;8.660;2024-03-06T02:37:37;12.50;;;4.77;;
4909;SDS011;2470;49.868;8.660;2024-03-06T02:40:04;5.67;;;3.80;;
4909;SDS011;2470;49.868;8.660;2024-03-06T02:42:32;11.60;;;5.50;;
4909;SDS011;2470;49.868;8.660;2024-03-06T02:44:57;6.70;;;4.50;;
4909;SDS011;2470;49.868;8.660;2024-03-06T02:47:23;14.00;;;5.40;;
4909;SDS011;2470;49.868;8.660;2024-03-06T02:49:49;10.43;;;5.57;;
4909;SDS011;2470;49.868;8.660;2024-03-06T02:52:14;7.80;;;4.57;;
4909;SDS011;2470;49.868;8.660;2024-03-06T02:54:40;7.50;;;4.50;;
4909;SDS011;2470;49.868;8.660;2024-03-06T02:57:07;5.70;;;3.87;;
4909;SDS011;2470;49.868;8.660;2024-03-06T02:59:32;12.87;;;5.27;;
4909;SDS011;2470;49.868;8.660;2024-03-06T03:01:58;11.57;;;5.60;;
4909;SDS011;2470;49.868;8.660;2024-03-06T03:04:24;7.57;;;4.90;;
4909;SDS011;2470;49.868;8.660;2024-03-06T03:06:51;9.97;;;5.17;;
4909;SDS011;2470;49.868;8.660;2024-03-06T03:09:16;5.80;;;4.20;;
4909;SDS011;2470;49.868;8.660;2024-03-06T03:11:42;17.90;;;5.80;;
4909;SDS011;2470;49.868;8.660;2024-03-06T03:14:09;10.63;;;6.10;;
4909;SDS011;2470;49.868;8.660;2024-03-06T03:16:34;7.10;;;4.80;;
4909;SDS011;2470;49.868;8.660;2024-03-06T03:19:00;8.70;;;5.03;;
4909;SDS011;2470;49.868;8.660;2024-03-06T03:21:26;17.20;;;5.17;;
4909;SDS011;2470;49.868;8.660;2024-03-06T03:23:52;5.57;;;4.30;;
4909;SDS011;2470;49.868;8.660;2024-03-06T03:26:17;7.67;;;4.70;;
4909;SDS011;2470;49.868;8.660;2024-03-06T03:28:43;6.23;;;4.03;;
4909;SDS011;2470;49.868;8.660;2024-03-06T03:31:08;6.33;;;3.73;;
4909;SDS011;2470;49.868;8.660;2024-03-06T03:33:35;9.00;;;5.53;;
4909;SDS011;2470;49.868;8.660;2024-03-06T03:36:05;7.50;;;4.40;;
4909;SDS011;2470;49.868;8.660;2024-03-06T03:38:32;6.60;;;4.17;;
4909;SDS011;2470;49.868;8.660;2024-03-06T03:40:58;7.77;;;5.20;;
4909;SDS011;2470;49.868;8.660;2024-03-06T03:43:23;7.80;;;4.83;;
4909;SDS011;2470;49.868;8.660;2024-03-06T03:45:49;10.63;;;4.77;;
4909;SDS011;2470;49.868;8.660;2024-03-06T03:48:14;22.40;;;5.00;;
4909;SDS011;2470;49.868;8.660;2024-03-06T03:50:40;7.10;;;3.93;;
4909;SDS011;2470;49.868;8.660;2024-03-06T03:53:06;9.87;;;5.20;;
4909;SDS011;2470;49.868;8.660;2024-03-06T03:55:31;11.73;;;5.67;;
4909;SDS011;2470;49.868;8.660;2024-03-06T03:57:57;12.83;;;4.90;;
4909;SDS011;2470;49.868;8.660;2024-03-06T04:00:22;10.50;;;4.37;;
4909;SDS011;2470;49.868;8.660;2024-03-06T04:02:48;8.13;;;4.10;;
4909;SDS011;2470;49.868;8.660;2024-03-06T04:05:13;8.53;;;4.90;;
4909;SDS011;2470;49.868;8.660;2024-03-06T04:07:39;8.90;;;4.50;;
4909;SDS011;2470;49.868;8.660;2024-03-06T04:10:05;8.57;;;4.33;;
4909;SDS011;2470;49.868;8.660;2024-03-06T04:12:31;8.30;;;4.37;;
4909;SDS011;2470;49.868;8.660;2024-03-06T04:14:57;7.77;;;4.23;;
4909;SDS011;2470;49.868;8.660;2024-03-06T04:17:22;7.73;;;4.20;;
4909;SDS011;2470;49.868;8.660;2024-03-06T04:19:49;6.30;;;3.77;;
4909;SDS011;2470;49.868;8.660;2024-03-06T04:22:18;12.30;;;4.20;;
4909;SDS011;2470;49.868;8.660;2024-03-06T04:24:44;6.80;;;4.90;;
4909;SDS011;2470;49.868;8.660;2024-03-06T04:27:09;11.00;;;4.93;;
4909;SDS011;2470;49.868;8.660;2024-03-06T04:29:35;7.37;;;4.77;;
4909;SDS011;2470;49.868;8.660;2024-03-06T04:32:01;6.93;;;3.97;;
4909;SDS011;2470;49.868;8.660;2024-03-06T04:34:26;7.43;;;5.20;;
4909;SDS011;2470;49.868;8.660;2024-03-06T04:36:52;7.57;;;4.20;;
4909;SDS011;2470;49.868;8.660;2024-03-06T04:39:17;21.90;;;4.93;;
4909;SDS011;2470;49.868;8.660;2024-03-06T04:41:43;5.50;;;4.33;;
4909;SDS011;2470;49.868;8.660;2024-03-06T04:44:08;13.73;;;5.10;;
4909;SDS011;2470;49.868;8.660;2024-03-06T04:46:34;8.47;;;4.57;;
4909;SDS011;2470;49.868;8.660;2024-03-06T04:48:59;9.57;;;5.67;;
4909;SDS011;2470;49.868;8.660;2024-03-06T04:51:25;7.07;;;5.13;;
4909;SDS011;2470;49.868;8.660;2024-03-06T04:53:50;7.80;;;4.27;;
4909;SDS011;2470;49.868;8.660;2024-03-06T04:56:16;7.67;;;4.77;;
4909;SDS011;2470;49.868;8.660;2024-03-06T04:58:43;8.97;;;5.30;;
4909;SDS011;2470;49.868;8.660;2024-03-06T05:01:09;8.00;;;4.60;;
4909;SDS011;2470;49.868;8.660;2024-03-06T05:03:36;6.70;;;4.50;;
4909;SDS011;2470;49.868;8.660;2024-03-06T05:06:03;11.80;;;5.23;;
4909;SDS011;2470;49.868;8.660;2024-03-06T05:08:30;8.27;;;5.03;;
4909;SDS011;2470;49.868;8.660;2024-03-06T05:10:55;10.93;;;5.13;;
4909;SDS011;2470;49.868;8.660;2024-03-06T05:13:21;7.90;;;5.00;;
4909;SDS011;2470;49.868;8.660;2024-03-06T05:15:47;6.43;;;4.37;;
4909;SDS011;2470;49.868;8.660;2024-03-06T05:18:12;7.10;;;4.80;;
4909;SDS011;2470;49.868;8.660;2024-03-06T05:20:38;9.10;;;5.17;;
4909;SDS011;2470;49.868;8.660;2024-03-06T05:23:04;9.93;;;5.07;;
4909;SDS011;2470;49.868;8.660;2024-03-06T05:25:29;10.70;;;4.70;;
4909;SDS011;2470;49.868;8.660;2024-03-06T05:27:55;9.90;;;4.43;;
4909;SDS011;2470;49.868;8.660;2024-03-06T05:30:20;6.33;;;4.80;;
4909;SDS011;2470;49.868;8.660;2024-03-06T05:32:46;7.83;;;4.43;;
4909;SDS011;2470;49.868;8.660;2024-03-06T05:35:12;9.07;;;4.90;;
4909;SDS011;2470;49.868;8.660;2024-03-06T05:37:37;8.93;;;4.80;;
4909;SDS011;2470;49.868;8.660;2024-03-06T05:40:03;6.27;;;4.47;;
4909;SDS011;2470;49.868;8.660;2024-03-06T05:42:30;11.20;;;4.63;;
4909;SDS011;2470;49.868;8.660;2024-03-06T05:44:56;5.40;;;4.43;;
4909;SDS011;2470;49.868;8.660;2024-03-06T05:47:25;8.83;;;5.53;;
4909;SDS011;2470;49.868;8.660;2024-03-06T05:49:51;16.40;;;6.07;;
4909;SDS011;2470;49.868;8.660;2024-03-06T05:52:17;20.73;;;6.70;;
4909;SDS011;2470;49.868;8.660;2024-03-06T05:54:42;8.67;;;5.30;;
4909;SDS011;2470;49.868;8.660;2024-03-06T05:57:08;10.13;;;5.20;;
4909;SDS011;2470;49.868;8.660;2024-03-06T05:59:33;14.30;;;5.23;;
4909;SDS011;2470;49.868;8.660;2024-03-06T06:01:59;9.13;;;5.20;;
4909;SDS011;2470;49.868;8.660;2024-03-06T06:04:24;15.87;;;5.80;;
4909;SDS011;2470;49.868;8.660;2024-03-06T06:06:50;5.87;;;4.30;;
4909;SDS011;2470;49.868;8.660;2024-03-06T06:09:17;12.57;;;5.93;;
4909;SDS011;2470;49.868;8.660;2024-03-06T06:11:43;8.67;;;4.97;;
4909;SDS011;2470;49.868;8.660;2024-03-06T06:14:09;8.40;;;5.63;;
4909;SDS011;2470;49.868;8.660;2024-03-06T06:16:38;15.63;;;5.63;;
4909;SDS011;2470;49.868;8.660;2024-03-06T06:19:06;7.73;;;5.07;;
4909;SDS011;2470;49.868;8.660;2024-03-06T06:21:32;9.90;;;5.00;;
4909;SDS011;2470;49.868;8.660;2024-03-06T06:24:00;11.37;;;5.57;;
4909;SDS011;2470;49.868;8.660;2024-03-06T06:26:26;8.07;;;4.87;;
4909;SDS011;2470;49.868;8.660;2024-03-06T06:28:52;7.40;;;4.80;;
4909;SDS011;2470;49.868;8.660;2024-03-06T06:31:17;9.20;;;5.30;;
4909;SDS011;2470;49.868;8.660;2024-03-06T06:33:43;12.70;;;5.50;;
4909;SDS011;2470;49.868;8.660;2024-03-06T06:36:10;8.37;;;5.50;;
4909;SDS011;2470;49.868;8.660;2024-03-06T06:38:36;10.30;;;5.30;;
4909;SDS011;2470;49.868;8.660;2024-03-06T06:41:01;14.47;;;6.10;;
4909;SDS011;2470;49.868;8.660;2024-03-06T06:43:27;27.67;;;11.87;;
4909;SDS011;2470;49.868;8.660;2024-03-06T06:45:53;25.47;;;9.70;;
4909;SDS011;2470;49.868;8.660;2024-03-06T06:48:18;10.77;;;6.37;;
4909;SDS011;2470;49.868;8.660;2024-03-06T06:50:44;8.90;;;6.03;;
4909;SDS011;2470;49.868;8.660;2024-03-06T06:53:12;9.07;;;5.43;;
4909;SDS011;2470;49.868;8.660;2024-03-06T06:55:38;8.50;;;5.60;;
4909;SDS011;2470;49.868;8.660;2024-03-06T06:58:04;9.77;;;5.50;;
4909;SDS011;2470;49.868;8.660;2024-03-06T07:00:30;8.00;;;5.60;;
4909;SDS011;2470;49.868;8.660;2024-03-06T07:02:55;13.03;;;7.17;;
4909;SDS011;2470;49.868;8.660;2024-03-06T07:05:23;10.03;;;5.67;;
4909;SDS011;2470;49.868;8.660;2024-03-06T07:07:49;9.63;;;6.20;;
4909;SDS011;2470;49.868;8.660;2024-03-06T07:10:15;8.83;;;6.03;;
4909;SDS011;2470;49.868;8.660;2024-03-06T07:12:40;8.83;;;5.30;;
4909;SDS011;2470;49.868;8.660;2024-03-06T07:15:06;9.07;;;5.83;;
4909;SDS011;2470;49.868;8.660;2024-03-06T07:17:31;10.13;;;6.20;;
4909;SDS011;2470;49.868;8.660;2024-03-06T07:19:57;9.87;;;5.63;;
4909;SDS011;2470;49.868;8.660;2024-03-06T07:22:23;10.70;;;5.30;;
4909;SDS011;2470;49.868;8.660;2024-03-06T07:24:48;14.80;;;6.47;;
4909;SDS011;2470;49.868;8.660;2024-03-06T07:27:14;8.00;;;5.10;;
4909;SDS011;2470;49.868;8.660;2024-03-06T07:29:39;8.43;;;5.50;;
4909;SDS011;2470;49.868;8.660;2024-03-06T07:32:05;9.50;;;5.77;;
4909;SDS011;2470;49.868;8.660;2024-03-06T07:34:31;10.13;;;5.73;;
4909;SDS011;2470;49.868;8.660;2024-03-06T07:36:57;11.17;;;5.03;;
4909;SDS011;2470;49.868;8.660;2024-03-06T07:39:24;14.43;;;6.03;;
4909;SDS011;2470;49.868;8.660;2024-03-06T07:41:50;9.57;;;4.50;;
4909;SDS011;2470;49.868;8.660;2024-03-06T07:44:16;6.03;;;4.20;;
4909;SDS011;2470;49.868;8.660;2024-03-06T07:46:41;10.70;;;5.77;;
4909;SDS011;2470;49.868;8.660;2024-03-06T07:49:07;8.40;;;5.43;;
4909;SDS011;2470;49.868;8.660;2024-03-06T07:51:32;12.90;;;5.53;;
4909;SDS011;2470;49.868;8.660;2024-03-06T07:53:58;7.73;;;4.97;;
4909;SDS011;2470;49.868;8.660;2024-03-06T07:56:24;7.03;;;4.23;;
4909;SDS011;2470;49.868;8.660;2024-03-06T07:58:50;13.93;;;4.50;;
4909;SDS011;2470;49.868;8.660;2024-03-06T08:01:16;7.47;;;4.40;;
4909;SDS011;2470;49.868;8.660;2024-03-06T08:03:42;14.53;;;4.30;;
4909;SDS011;2470;49.868;8.660;2024-03-06T08:06:08;10.83;;;4.13;;
4909;SDS011;2470;49.868;8.660;2024-03-06T08:08:34;8.37;;;3.67;;
4909;SDS011;2470;49.868;8.660;2024-03-06T08:11:10;7.53;;;3.93;;
4909;SDS011;2470;49.868;8.660;2024-03-06T08:13:36;8.97;;;3.90;;
4909;SDS011;2470;49.868;8.660;2024-03-06T08:16:02;11.03;;;4.40;;
4909;SDS011;2470;49.868;8.660;2024-03-06T08:18:29;5.67;;;4.23;;
4909;SDS011;2470;49.868;8.660;2024-03-06T08:20:54;6.60;;;4.60;;
4909;SDS011;2470;49.868;8.660;2024-03-06T08:23:20;13.70;;;6.80;;
4909;SDS011;2470;49.868;8.660;2024-03-06T08:25:45;7.03;;;5.50;;
4909;SDS011;2470;49.868;8.660;2024-03-06T08:28:11;8.83;;;4.90;;
4909;SDS011;2470;49.868;8.660;2024-03-06T08:30:37;11.90;;;5.87;;
4909;SDS011;2470;49.868;8.660;2024-03-06T08:33:02;9.73;;;6.00;;
4909;SDS011;2470;49.868;8.660;2024-03-06T08:35:31;8.53;;;5.30;;
4909;SDS011;2470;49.868;8.660;2024-03-06T08:37:56;9.13;;;6.00;;
4909;SDS011;2470;49.868;8.660;2024-03-06T08:40:22;12.80;;;6.33;;
4909;SDS011;2470;49.868;8.660;2024-03-06T08:42:48;12.73;;;6.30;;
4909;SDS011;2470;49.868;8.660;2024-03-06T08:45:14;11.80;;;6.93;;
4909;SDS011;2470;49.868;8.660;2024-03-06T08:47:41;10.40;;;6.03;;
4909;SDS011;2470;49.868;8.660;2024-03-06T08:50:06;14.97;;;6.63;;
4909;SDS011;2470;49.868;8.660;2024-03-06T08:52:32;9.90;;;5.87;;
4909;SDS011;2470;49.868;8.660;2024-03-06T08:54:59;16.77;;;7.23;;
4909;SDS011;2470;49.868;8.660;2024-03-06T08:57:25;11.40;;;7.37;;
4909;SDS011;2470;49.868;8.660;2024-03-06T08:59:53;24.00;;;10.70;;
4909;SDS011;2470;49.868;8.660;2024-03-06T09:02:22;35.07;;;12.07;;
4909;SDS011;2470;49.868;8.660;2024-03-06T09:04:47;21.00;;;10.00;;
4909;SDS011;2470;49.868;8.660;2024-03-06T09:07:13;25.27;;;10.47;;
4909;SDS011;2470;49.868;8.660;2024-03-06T09:09:39;26.70;;;11.87;;
4909;SDS011;2470;49.868;8.660;2024-03-06T09:12:06;24.50;;;12.00;;
4909;SDS011;2470;49.868;8.660;2024-03-06T09:14:35;23.30;;;12.63;;
4909;SDS011;2470;49.868;8.660;2024-03-06T09:17:01;22.70;;;11.80;;
4909;SDS011;2470;49.868;8.660;2024-03-06T09:19:27;22.13;;;11.00;;
4909;SDS011;2470;49.868;8.660;2024-03-06T09:21:52;26.37;;;12.40;;
4909;SDS011;2470;49.868;8.660;2024-03-06T09:24:19;24.00;;;13.43;;
4909;SDS011;2470;49.868;8.660;2024-03-06T09:26:45;20.80;;;11.23;;
4909;SDS011;2470;49.868;8.660;2024-03-06T09:29:12;23.13;;;10.40;;
4909;SDS011;2470;49.868;8.660;2024-03-06T09:31:37;20.80;;;10.63;;
4909;SDS011;2470;49.868;8.660;2024-03-06T09:34:03;21.40;;;11.03;;
4909;SDS011;2470;49.868;8.660;2024-03-06T09:36:28;22.67;;;10.63;;
4909;SDS011;2470;49.868;8.660;2024-03-06T09:38:54;19.57;;;10.40;;
4909;SDS011;2470;49.868;8.660;2024-03-06T09:41:20;17.13;;;11.43;;
4909;SDS011;2470;49.868;8.660;2024-03-06T09:43:46;20.20;;;10.50;;
4909;SDS011;2470;49.868;8.660;2024-03-06T09:46:12;21.27;;;11.03;;
4909;SDS011;2470;49.868;8.660;2024-03-06T09:48:42;22.77;;;11.70;;
4909;SDS011;2470;49.868;8.660;2024-03-06T09:51:12;23.70;;;11.30;;
4909;SDS011;2470;49.868;8.660;2024-03-06T09:53:38;20.70;;;11.60;;
4909;SDS011;2470;49.868;8.660;2024-03-06T09:56:05;20.90;;;9.97;;
4909;SDS011;2470;49.868;8.660;2024-03-06T09:58:31;23.07;;;11.10;;
4909;SDS011;2470;49.868;8.660;2024-03-06T10:00:58;25.20;;;12.10;;
4909;SDS011;2470;49.868;8.660;2024-03-06T10:03:25;23.13;;;11.20;;
4909;SDS011;2470;49.868;8.660;2024-03-06T10:05:52;19.73;;;10.43;;
4909;SDS011;2470;49.868;8.660;2024-03-06T10:08:19;16.70;;;9.67;;
4909;SDS011;2470;49.868;8.660;2024-03-06T10:10:45;19.53;;;11.20;;
4909;SDS011;2470;49.868;8.660;2024-03-06T10:13:18;22.43;;;11.00;;
4909;SDS011;2470;49.868;8.660;2024-03-06T10:15:57;24.53;;;12.50;;
4909;SDS011;2470;49.868;8.660;2024-03-06T10:18:23;24.57;;;11.17;;
4909;SDS011;2470;49.868;8.660;2024-03-06T10:20:52;20.77;;;10.83;;
4909;SDS011;2470;49.868;8.660;2024-03-06T10:23:18;20.13;;;11.13;;
4909;SDS011;2470;49.868;8.660;2024-03-06T10:25:45;23.07;;;11.40;;
4909;SDS011;2470;49.868;8.660;2024-03-06T10:28:15;18.33;;;10.53;;
4909;SDS011;2470;49.868;8.660;2024-03-06T10:30:42;20.00;;;10.97;;
4909;SDS011;2470;49.868;8.660;2024-03-06T10:33:08;21.37;;;12.00;;
4909;SDS011;2470;49.868;8.660;2024-03-06T10:35:34;22.07;;;11.00;;
4909;SDS011;2470;49.868;8.660;2024-03-06T10:38:04;21.13;;;9.27;;
4909;SDS011;2470;49.868;8.660;2024-03-06T10:40:31;18.13;;;10.63;;
4909;SDS011;2470;49.868;8.660;2024-03-06T10:43:00;24.07;;;10.70;;
4909;SDS011;2470;49.868;8.660;2024-03-06T10:48:26;25.87;;;13.23;;
4909;SDS011;2470;49.868;8.660;2024-03-06T10:50:53;20.83;;;11.20;;
4909;SDS011;2470;49.868;8.660;2024-03-06T10:53:21;28.80;;;13.03;;
4909;SDS011;2470;49.868;8.660;2024-03-06T10:55:48;22.83;;;11.90;;
4909;SDS011;2470;49.868;8.660;2024-03-06T10:58:14;18.67;;;10.43;;
4909;SDS011;2470;49.868;8.660;2024-03-06T11:00:42;20.77;;;10.40;;
4909;SDS011;2470;49.868;8.660;2024-03-06T11:03:13;21.70;;;10.03;;
4909;SDS011;2470;49.868;8.660;2024-03-06T11:05:39;19.20;;;10.20;;
4909;SDS011;2470;49.868;8.660;2024-03-06T11:08:11;21.80;;;10.90;;
4909;SDS011;2470;49.868;8.660;2024-03-06T11:10:39;27.77;;;10.37;;
4909;SDS011;2470;49.868;8.660;2024-03-06T11:13:09;21.60;;;11.20;;
4909;SDS011;2470;49.868;8.660;2024-03-06T11:15:46;21.37;;;10.60;;
4909;SDS011;2470;49.868;8.660;2024-03-06T11:21:44;24.90;;;11.20;;
4909;SDS011;2470;49.868;8.660;2024-03-06T11:24:11;20.27;;;10.33;;
4909;SDS011;2470;49.868;8.660;2024-03-06T11:26:47;23.38;;;9.88;;
4909;SDS011;2470;49.868;8.660;2024-03-06T11:29:26;16.52;;;8.93;;
4909;SDS011;2470;49.868;8.660;2024-03-06T11:31:57;24.67;;;10.82;;
4909;SDS011;2470;49.868;8.660;2024-03-06T11:34:29;18.40;;;9.38;;
4909;SDS011;2470;49.868;8.660;2024-03-06T11:36:58;17.25;;;8.48;;
4909;SDS011;2470;49.868;8.660;2024-03-06T11:39:24;15.93;;;8.25;;
4909;SDS011;2470;49.868;8.660;2024-03-06T11:41:52;17.35;;;9.95;;
4909;SDS011;2470;49.868;8.660;2024-03-06T11:44:21;20.70;;;8.80;;
4909;SDS011;2470;49.868;8.660;2024-03-06T11:46:57;20.33;;;9.27;;
4909;SDS011;2470;49.868;8.660;2024-03-06T11:49:28;14.68;;;7.82;;
4909;SDS011;2470;49.868;8.660;2024-03-06T11:52:06;18.95;;;8.70;;
4909;SDS011;2470;49.868;8.660;2024-03-06T11:54:33;24.15;;;10.05;;
4909;SDS011;2470;49.868;8.660;2024-03-06T11:56:59;15.98;;;8.18;;
4909;SDS011;2470;49.868;8.660;2024-03-06T11:59:26;19.15;;;9.35;;
4909;SDS011;2470;49.868;8.660;2024-03-06T12:01:53;14.15;;;7.85;;
4909;SDS011;2470;49.868;8.660;2024-03-06T12:04:20;14.07;;;8.25;;
4909;SDS011;2470;49.868;8.660;2024-03-06T12:06:47;19.77;;;8.98;;
4909;SDS011;2470;49.868;8.660;2024-03-06T12:09:13;16.35;;;9.63;;
4909;SDS011;2470;49.868;8.660;2024-03-06T12:11:40;16.05;;;9.70;;
4909;SDS011;2470;49.868;8.660;2024-03-06T12:14:06;19.45;;;8.40;;
4909;SDS011;2470;49.868;8.660;2024-03-06T12:16:32;16.70;;;9.05;;
4909;SDS011;2470;49.868;8.660;2024-03-06T12:18:58;19.80;;;8.20;;
4909;SDS011;2470;49.868;8.660;2024-03-06T12:21:30;21.40;;;9.88;;
4909;SDS011;2470;49.868;8.660;2024-03-06T12:24:03;14.27;;;8.50;;
4909;SDS011;2470;49.868;8.660;2024-03-06T12:26:29;15.35;;;8.40;;
4909;SDS011;2470;49.868;8.660;2024-03-06T12:29:03;19.55;;;9.93;;
4909;SDS011;2470;49.868;8.660;2024-03-06T12:31:30;27.08;;;8.80;;
4909;SDS011;2470;49.868;8.660;2024-03-06T12:33:57;22.05;;;10.48;;
4909;SDS011;2470;49.868;8.660;2024-03-06T12:36:25;19.77;;;9.45;;
4909;SDS011;2470;49.868;8.660;2024-03-06T12:38:54;18.35;;;9.65;;
4909;SDS011;2470;49.868;8.660;2024-03-06T12:41:20;17.17;;;9.32;;
4909;SDS011;2470;49.868;8.660;2024-03-06T12:43:45;17.70;;;9.05;;
4909;SDS011;2470;49.868;8.660;2024-03-06T12:46:11;17.17;;;9.57;;
4909;SDS011;2470;49.868;8.660;2024-03-06T12:48:37;21.88;;;10.43;;
4909;SDS011;2470;49.868;8.660;2024-03-06T12:51:02;18.73;;;10.40;;
4909;SDS011;2470;49.868;8.660;2024-03-06T12:53:29;20.08;;;9.75;;
4909;SDS011;2470;49.868;8.660;2024-03-06T12:55:57;19.33;;;9.80;;
4909;SDS011;2470;49.868;8.660;2024-03-06T12:58:23;20.27;;;9.82;;
4909;SDS011;2470;49.868;8.660;2024-03-06T13:00:49;19.27;;;9.85;;
4909;SDS011;2470;49.868;8.660;2024-03-06T13:03:15;21.73;;;10.98;;
4909;SDS011;2470;49.868;8.660;2024-03-06T13:05:41;22.55;;;10.48;;
4909;SDS011;2470;49.868;8.660;2024-03-06T13:08:07;20.20;;;9.95;;
4909;SDS011;2470;49.868;8.660;2024-03-06T13:10:32;20.15;;;10.85;;
4909;SDS011;2470;49.868;8.660;2024-03-06T13:12:58;24.98;;;11.80;;
4909;SDS011;2470;49.868;8.660;2024-03-06T13:15:23;23.07;;;10.97;;
4909;SDS011;2470;49.868;8.660;2024-03-06T13:17:49;24.50;;;11.90;;
4909;SDS011;2470;49.868;8.660;2024-03-06T13:20:14;26.23;;;11.33;;
4909;SDS011;2470;49.868;8.660;2024-03-06T13:22:40;28.90;;;12.83;;
4909;SDS011;2470;49.868;8.660;2024-03-06T13:25:06;21.40;;;10.03;;
4909;SDS011;2470;49.868;8.660;2024-03-06T13:27:32;25.47;;;10.90;;
4909;SDS011;2470;49.868;8.660;2024-03-06T13:29:58;24.83;;;12.57;;
4909;SDS011;2470;49.868;8.660;2024-03-06T13:32:24;19.87;;;10.43;;
4909;SDS011;2470;49.868;8.660;2024-03-06T13:34:49;27.93;;;12.27;;
4909;SDS011;2470;49.868;8.660;2024-03-06T13:37:15;24.10;;;11.27;;
4909;SDS011;2470;49.868;8.660;2024-03-06T13:39:41;25.50;;;12.30;;
4909;SDS011;2470;49.868;8.660;2024-03-06T13:42:06;24.90;;;12.00;;
4909;SDS011;2470;49.868;8.660;2024-03-06T13:44:35;23.57;;;11.80;;
4909;SDS011;2470;49.868;8.660;2024-03-06T13:47:01;28.43;;;11.73;;
4909;SDS011;2470;49.868;8.660;2024-03-06T13:49:37;26.77;;;11.60;;
4909;SDS011;2470;49.868;8.660;2024-03-06T13:52:06;22.70;;;12.47;;
4909;SDS011;2470;49.868;8.660;2024-03-06T13:54:35;22.70;;;11.73;;
4909;SDS011;2470;49.868;8.660;2024-03-06T13:57:02;20.57;;;10.13;;
4909;SDS011;2470;49.868;8.660;2024-03-06T13:59:30;23.10;;;10.83;;
4909;SDS011;2470;49.868;8.660;2024-03-06T14:01:56;22.27;;;11.50;;
4909;SDS011;2470;49.868;8.660;2024-03-06T14:04:21;26.33;;;12.05;;
4909;SDS011;2470;49.868;8.660;2024-03-06T14:06:47;25.77;;;12.23;;
4909;SDS011;2470;49.868;8.660;2024-03-06T14:09:13;27.03;;;12.47;;
4909;SDS011;2470;49.868;8.660;2024-03-06T14:11:39;28.03;;;11.13;;
4909;SDS011;2470;49.868;8.660;2024-03-06T14:14:05;23.13;;;11.90;;
4909;SDS011;2470;49.868;8.660;2024-03-06T14:16:31;23.33;;;12.00;;
4909;SDS011;2470;49.868;8.660;2024-03-06T14:18:56;25.03;;;11.30;;
4909;SDS011;2470;49.868;8.660;2024-03-06T14:21:22;27.30;;;10.63;;
4909;SDS011;2470;49.868;8.660;2024-03-06T14:23:48;26.88;;;11.57;;
4909;SDS011;2470;49.868;8.660;2024-03-06T14:26:14;27.40;;;12.17;;
4909;SDS011;2470;49.868;8.660;2024-03-06T14:28:41;33.13;;;13.07;;
4909;SDS011;2470;49.868;8.660;2024-03-06T14:31:06;24.90;;;11.70;;
4909;SDS011;2470;49.868;8.660;2024-03-06T14:33:32;38.55;;;16.60;;
4909;SDS011;2470;49.868;8.660;2024-03-06T14:35:58;23.05;;;11.25;;
4909;SDS011;2470;49.868;8.660;2024-03-06T14:38:24;26.45;;;12.43;;
4909;SDS011;2470;49.868;8.660;2024-03-06T14:40:50;24.48;;;11.68;;
4909;SDS011;2470;49.868;8.660;2024-03-06T14:43:16;20.88;;;10.85;;
4909;SDS011;2470;49.868;8.660;2024-03-06T14:45:42;28.80;;;13.38;;
4909;SDS011;2470;49.868;8.660;2024-03-06T14:48:10;24.67;;;11.40;;
4909;SDS011;2470;49.868;8.660;2024-03-06T14:50:35;23.27;;;10.98;;
4909;SDS011;2470;49.868;8.660;2024-03-06T14:53:01;20.40;;;9.23;;
4909;SDS011;2470;49.868;8.660;2024-03-06T14:55:26;24.67;;;10.85;;
4909;SDS011;2470;49.868;8.660;2024-03-06T14:57:52;23.27;;;12.00;;
4909;SDS011;2470;49.868;8.660;2024-03-06T15:00:18;24.42;;;10.90;;
4909;SDS011;2470;49.868;8.660;2024-03-06T15:02:46;18.70;;;10.20;;
4909;SDS011;2470;49.868;8.660;2024-03-06T15:05:12;20.35;;;10.25;;